createdAt,value
2022-10-26T00:00:32.210Z,1013.28
2022-10-26T00:01:32.322Z,1013.28
2022-10-26T00:02:32.251Z,1013.28
2022-10-26T00:03:32.179Z,1013.28
2022-10-26T00:04:32.167Z,1013.30
2022-10-26T00:05:32.179Z,1013.28
2022-10-26T00:06:32.154Z,1013.27
2022-10-26T00:07:32.151Z,1013.28
2022-10-26T00:08:32.127Z,1013.27
2022-10-26T00:09:32.114Z,1013.26
2022-10-26T00:10:32.115Z,1013.27
2022-10-26T00:11:32.107Z,1013.30
2022-10-26T00:12:32.080Z,1013.27
2022-10-26T00:13:32.072Z,1013.25
2022-10-26T00:14:32.059Z,1013.25
2022-10-26T00:15:32.050Z,1013.24
2022-10-26T00:16:32.045Z,1013.23
2022-10-26T00:17:32.026Z,1013.25
2022-10-26T00:18:32.023Z,1013.23
2022-10-26T00:19:32.011Z,1013.23
2022-10-26T00:20:32.004Z,1013.19
2022-10-26T00:21:32.026Z,1013.24
2022-10-26T00:22:32.012Z,1013.29
2022-10-26T00:23:31.968Z,1013.29
2022-10-26T00:24:31.951Z,1013.26
2022-10-26T00:25:31.956Z,1013.29
2022-10-26T00:26:31.930Z,1013.26
2022-10-26T00:27:31.919Z,1013.31
2022-10-26T00:28:31.908Z,1013.36
2022-10-26T00:29:31.897Z,1013.35
2022-10-26T00:30:31.903Z,1013.35
2022-10-26T00:31:31.878Z,1013.38
2022-10-26T00:32:31.896Z,1013.39
2022-10-26T00:33:31.858Z,1013.40
2022-10-26T00:34:31.851Z,1013.40
2022-10-26T00:35:44.978Z,1013.43
2022-10-26T00:36:32.818Z,1013.44
2022-10-26T00:37:31.828Z,1013.46
2022-10-26T00:38:31.802Z,1013.45
2022-10-26T00:39:31.791Z,1013.53
2022-10-26T00:40:31.776Z,1013.55
2022-10-26T00:41:38.835Z,1013.58
2022-10-26T00:42:31.755Z,1013.57
2022-10-26T00:43:31.748Z,1013.62
2022-10-26T00:44:36.065Z,1013.63
2022-10-26T00:45:32.745Z,1013.63
2022-10-26T00:46:31.723Z,1013.58
2022-10-26T00:47:31.702Z,1013.59
2022-10-26T00:48:31.699Z,1013.64
2022-10-26T00:49:31.681Z,1013.64
2022-10-26T00:50:31.668Z,1013.60
2022-10-26T00:51:31.673Z,1013.58
2022-10-26T00:52:31.648Z,1013.57
2022-10-26T00:53:31.655Z,1013.56
2022-10-26T00:54:31.625Z,1013.54
2022-10-26T00:55:31.614Z,1013.52
2022-10-26T00:56:31.621Z,1013.50
2022-10-26T00:57:31.680Z,1013.46
2022-10-26T00:58:31.581Z,1013.44
2022-10-26T00:59:31.572Z,1013.47
2022-10-26T01:00:31.567Z,1013.45
2022-10-26T01:01:31.635Z,1013.48
2022-10-26T01:02:31.548Z,1013.51
2022-10-26T01:03:31.656Z,1013.49
2022-10-26T01:04:31.519Z,1013.42
2022-10-26T01:05:31.513Z,1013.46
2022-10-26T01:06:31.506Z,1013.41
2022-10-26T01:07:31.486Z,1013.43
2022-10-26T01:08:31.476Z,1013.43
2022-10-26T01:09:31.482Z,1013.46
2022-10-26T01:10:31.453Z,1013.45
2022-10-26T01:11:31.450Z,1013.43
2022-10-26T01:12:31.435Z,1013.46
2022-10-26T01:13:31.421Z,1013.43
2022-10-26T01:14:31.410Z,1013.42
2022-10-26T01:15:31.399Z,1013.41
2022-10-26T01:16:31.400Z,1013.39
2022-10-26T01:17:31.377Z,1013.40
2022-10-26T01:18:31.371Z,1013.37
2022-10-26T01:19:31.357Z,1013.38
2022-10-26T01:20:31.367Z,1013.34
2022-10-26T01:21:31.334Z,1013.32
2022-10-26T01:22:31.326Z,1013.33
2022-10-26T01:23:31.314Z,1013.35
2022-10-26T01:24:31.306Z,1013.34
2022-10-26T01:25:31.316Z,1013.32
2022-10-26T01:26:31.301Z,1013.35
2022-10-26T01:27:31.270Z,1013.35
2022-10-26T01:28:31.265Z,1013.35
2022-10-26T01:29:31.248Z,1013.37
2022-10-26T01:30:31.238Z,1013.41
2022-10-26T01:31:31.243Z,1013.33
2022-10-26T01:32:31.218Z,1013.33
2022-10-26T01:33:31.210Z,1013.32
2022-10-26T01:34:31.200Z,1013.29
2022-10-26T01:35:31.183Z,1013.32
2022-10-26T01:37:31.164Z,1013.26
2022-10-26T01:38:31.153Z,1013.28
2022-10-26T01:39:31.144Z,1013.28
2022-10-26T01:40:31.143Z,1013.27
2022-10-26T01:41:31.136Z,1013.30
2022-10-26T01:42:31.109Z,1013.29
2022-10-26T01:43:31.100Z,1013.26
2022-10-26T01:44:31.091Z,1013.26
2022-10-26T01:45:31.087Z,1013.27
2022-10-26T01:46:31.066Z,1013.23
2022-10-26T01:47:31.054Z,1013.24
2022-10-26T01:48:31.047Z,1013.22
2022-10-26T01:49:31.033Z,1013.23
2022-10-26T01:50:31.035Z,1013.24
2022-10-26T01:51:31.014Z,1013.24
2022-10-26T01:52:31.002Z,1013.16
2022-10-26T01:53:30.994Z,1013.17
2022-10-26T01:54:31.045Z,1013.18
2022-10-26T01:55:30.976Z,1013.14
2022-10-26T01:56:30.959Z,1013.19
2022-10-26T01:57:30.964Z,1013.15
2022-10-26T01:58:30.936Z,1013.17
2022-10-26T01:59:30.924Z,1013.14
2022-10-26T02:00:30.926Z,1013.10
2022-10-26T02:01:30.925Z,1013.11
2022-10-26T02:02:30.895Z,1013.13
2022-10-26T02:03:30.901Z,1013.13
2022-10-26T02:04:30.872Z,1013.12
2022-10-26T02:05:30.878Z,1013.15
2022-10-26T02:06:30.851Z,1013.16
2022-10-26T02:07:30.845Z,1013.14
2022-10-26T02:08:30.827Z,1013.12
2022-10-26T02:09:30.816Z,1013.13
2022-10-26T02:10:30.817Z,1013.12
2022-10-26T02:11:30.797Z,1013.15
2022-10-26T02:12:30.791Z,1013.11
2022-10-26T02:13:30.792Z,1013.13
2022-10-26T02:14:30.769Z,1013.15
2022-10-26T02:15:30.774Z,1013.15
2022-10-26T02:16:30.742Z,1013.13
2022-10-26T02:17:30.731Z,1013.12
2022-10-26T02:18:30.721Z,1013.11
2022-10-26T02:19:30.718Z,1013.10
2022-10-26T02:20:30.716Z,1013.09
2022-10-26T02:21:30.692Z,1013.04
2022-10-26T02:22:30.679Z,1013.08
2022-10-26T02:23:30.667Z,1013.02
2022-10-26T02:24:30.656Z,1013.04
2022-10-26T02:25:30.657Z,1013.03
2022-10-26T02:26:30.634Z,1013.04
2022-10-26T02:27:30.623Z,1013.03
2022-10-26T02:28:30.614Z,1013.08
2022-10-26T02:29:30.641Z,1013.05
2022-10-26T02:30:30.606Z,1013.06
2022-10-26T02:31:30.581Z,1013.03
2022-10-26T02:32:30.575Z,1013.07
2022-10-26T02:33:30.559Z,1013.02
2022-10-26T02:34:30.560Z,1013.05
2022-10-26T02:35:30.540Z,1013.03
2022-10-26T02:36:30.527Z,1013.05
2022-10-26T02:37:30.517Z,1013.05
2022-10-26T02:38:30.506Z,1013.05
2022-10-26T02:39:30.503Z,1013.02
2022-10-26T02:40:30.486Z,1013.06
2022-10-26T02:41:30.475Z,1013.06
2022-10-26T02:42:30.463Z,1013.10
2022-10-26T02:44:30.455Z,1013.08
2022-10-26T02:45:30.454Z,1013.12
2022-10-26T02:46:30.420Z,1013.14
2022-10-26T02:47:30.409Z,1013.09
2022-10-26T02:48:30.397Z,1013.14
2022-10-26T02:49:30.399Z,1013.16
2022-10-26T02:50:30.392Z,1013.10
2022-10-26T02:51:30.392Z,1013.09
2022-10-26T02:52:30.358Z,1013.12
2022-10-26T02:53:30.361Z,1013.10
2022-10-26T02:54:30.336Z,1013.13
2022-10-26T02:55:30.352Z,1013.19
2022-10-26T02:56:30.315Z,1013.18
2022-10-26T02:57:30.303Z,1013.14
2022-10-26T02:58:30.292Z,1013.14
2022-10-26T02:59:30.281Z,1013.15
2022-10-26T03:00:30.279Z,1013.17
2022-10-26T03:01:30.304Z,1013.17
2022-10-26T03:02:30.311Z,1013.19
2022-10-26T03:03:30.237Z,1013.15
2022-10-26T03:04:30.238Z,1013.12
2022-10-26T03:05:30.225Z,1013.10
2022-10-26T03:06:30.206Z,1013.11
2022-10-26T03:07:30.196Z,1013.10
2022-10-26T03:08:30.192Z,1013.10
2022-10-26T03:09:30.183Z,1013.12
2022-10-26T03:10:30.166Z,1013.11
2022-10-26T03:11:30.151Z,1013.12
2022-10-26T03:12:30.145Z,1013.10
2022-10-26T03:13:30.129Z,1013.13
2022-10-26T03:14:30.128Z,1013.08
2022-10-26T03:15:30.108Z,1013.11
2022-10-26T03:16:30.100Z,1013.08
2022-10-26T03:17:30.104Z,1013.11
2022-10-26T03:18:30.078Z,1013.13
2022-10-26T03:19:30.078Z,1013.12
2022-10-26T03:20:30.080Z,1013.15
2022-10-26T03:21:30.043Z,1013.15
2022-10-26T03:22:30.033Z,1013.16
2022-10-26T03:23:30.019Z,1013.15
2022-10-26T03:24:30.025Z,1013.14
2022-10-26T03:25:30.001Z,1013.16
2022-10-26T03:26:30.016Z,1013.16
2022-10-26T03:27:29.979Z,1013.17
2022-10-26T03:28:29.979Z,1013.19
2022-10-26T03:29:29.984Z,1013.19
2022-10-26T03:30:29.946Z,1013.14
2022-10-26T03:31:29.934Z,1013.14
2022-10-26T03:32:29.949Z,1013.17
2022-10-26T03:33:29.994Z,1013.17
2022-10-26T03:34:29.904Z,1013.18
2022-10-26T03:35:29.904Z,1013.19
2022-10-26T03:36:29.882Z,1013.19
2022-10-26T03:37:29.874Z,1013.18
2022-10-26T03:38:29.864Z,1013.17
2022-10-26T03:39:29.849Z,1013.17
2022-10-26T03:40:29.853Z,1013.19
2022-10-26T03:41:29.827Z,1013.17
2022-10-26T03:42:29.823Z,1013.13
2022-10-26T03:43:29.815Z,1013.16
2022-10-26T03:44:29.801Z,1013.11
2022-10-26T03:45:29.805Z,1013.16
2022-10-26T03:46:29.779Z,1013.17
2022-10-26T03:47:29.766Z,1013.16
2022-10-26T03:48:29.786Z,1013.19
2022-10-26T03:49:29.759Z,1013.20
2022-10-26T03:50:29.772Z,1013.18
2022-10-26T03:51:29.722Z,1013.18
2022-10-26T03:52:29.716Z,1013.18
2022-10-26T03:53:29.697Z,1013.18
2022-10-26T03:54:29.701Z,1013.14
2022-10-26T03:55:29.689Z,1013.13
2022-10-26T03:56:29.668Z,1013.13
2022-10-26T03:57:29.656Z,1013.15
2022-10-26T03:58:29.654Z,1013.13
2022-10-26T03:59:29.643Z,1013.11
2022-10-26T04:00:29.625Z,1013.09
2022-10-26T04:01:29.636Z,1013.13
2022-10-26T04:02:29.629Z,1013.12
2022-10-26T04:03:29.591Z,1013.12
2022-10-26T04:04:29.673Z,1013.17
2022-10-26T04:05:29.597Z,1013.16
2022-10-26T04:06:29.560Z,1013.15
2022-10-26T04:07:29.547Z,1013.17
2022-10-26T04:08:29.539Z,1013.19
2022-10-26T04:09:29.540Z,1013.21
2022-10-26T04:10:29.516Z,1013.15
2022-10-26T04:11:29.509Z,1013.18
2022-10-26T04:12:29.493Z,1013.19
2022-10-26T04:13:29.482Z,1013.21
2022-10-26T04:14:29.471Z,1013.23
2022-10-26T04:15:29.467Z,1013.23
2022-10-26T04:16:32.545Z,1013.23
2022-10-26T04:17:29.444Z,1013.23
2022-10-26T04:18:29.428Z,1013.24
2022-10-26T04:19:29.421Z,1013.24
2022-10-26T04:20:29.459Z,1013.23
2022-10-26T04:21:29.412Z,1013.22
2022-10-26T04:22:29.388Z,1013.26
2022-10-26T04:23:29.391Z,1013.20
2022-10-26T04:24:29.366Z,1013.24
2022-10-26T04:25:32.677Z,1013.21
2022-10-26T04:26:29.347Z,1013.22
2022-10-26T04:27:29.330Z,1013.23
2022-10-26T04:28:29.320Z,1013.22
2022-10-26T04:29:29.307Z,1013.23
2022-10-26T04:30:29.310Z,1013.21
2022-10-26T04:31:29.337Z,1013.18
2022-10-26T04:32:29.284Z,1013.22
2022-10-26T04:33:29.265Z,1013.22
2022-10-26T04:34:29.279Z,1013.22
2022-10-26T04:35:29.256Z,1013.18
2022-10-26T04:36:29.232Z,1013.21
2022-10-26T04:37:29.239Z,1013.21
2022-10-26T04:38:29.213Z,1013.22
2022-10-26T04:39:29.222Z,1013.29
2022-10-26T04:40:29.214Z,1013.26
2022-10-26T04:41:29.194Z,1013.24
2022-10-26T04:42:29.167Z,1013.29
2022-10-26T04:43:29.159Z,1013.29
2022-10-26T04:44:29.148Z,1013.31
2022-10-26T04:45:29.145Z,1013.28
2022-10-26T04:46:29.125Z,1013.27
2022-10-26T04:47:29.125Z,1013.30
2022-10-26T04:48:29.131Z,1013.27
2022-10-26T04:49:29.088Z,1013.27
2022-10-26T04:50:29.092Z,1013.27
2022-10-26T04:51:29.066Z,1013.27
2022-10-26T04:52:29.057Z,1013.28
2022-10-26T04:53:29.066Z,1013.27
2022-10-26T04:54:29.035Z,1013.28
2022-10-26T04:55:29.037Z,1013.28
2022-10-26T04:56:29.013Z,1013.28
2022-10-26T04:57:29.006Z,1013.27
2022-10-26T04:58:29.025Z,1013.28
2022-10-26T04:59:28.985Z,1013.25
2022-10-26T05:00:28.990Z,1013.25
2022-10-26T05:01:29.030Z,1013.21
2022-10-26T05:02:29.194Z,1013.17
2022-10-26T05:03:30.112Z,1013.18
2022-10-26T05:04:28.927Z,1013.16
2022-10-26T05:05:28.925Z,1013.17
2022-10-26T05:06:28.904Z,1013.16
2022-10-26T05:07:28.896Z,1013.20
2022-10-26T05:08:28.891Z,1013.18
2022-10-26T05:09:28.888Z,1013.18
2022-10-26T05:10:28.877Z,1013.16
2022-10-26T05:11:28.853Z,1013.23
2022-10-26T05:12:28.841Z,1013.19
2022-10-26T05:13:28.838Z,1013.23
2022-10-26T05:14:28.846Z,1013.17
2022-10-26T05:15:28.818Z,1013.22
2022-10-26T05:16:28.797Z,1013.24
2022-10-26T05:17:28.783Z,1013.23
2022-10-26T05:18:28.777Z,1013.22
2022-10-26T05:19:28.764Z,1013.20
2022-10-26T05:20:28.764Z,1013.22
2022-10-26T05:21:28.740Z,1013.22
2022-10-26T05:22:28.731Z,1013.24
2022-10-26T05:23:28.720Z,1013.24
2022-10-26T05:24:28.707Z,1013.21
2022-10-26T05:25:28.725Z,1013.22
2022-10-26T05:26:28.742Z,1013.22
2022-10-26T05:27:28.700Z,1013.22
2022-10-26T05:28:28.664Z,1013.25
2022-10-26T05:29:28.654Z,1013.23
2022-10-26T05:30:28.653Z,1013.24
2022-10-26T05:31:28.631Z,1013.20
2022-10-26T05:32:28.619Z,1013.23
2022-10-26T05:33:28.610Z,1013.20
2022-10-26T05:34:28.611Z,1013.23
2022-10-26T05:35:28.598Z,1013.19
2022-10-26T05:36:28.578Z,1013.21
2022-10-26T05:37:28.566Z,1013.21
2022-10-26T05:38:28.559Z,1013.25
2022-10-26T05:39:28.544Z,1013.20
2022-10-26T05:40:28.545Z,1013.24
2022-10-26T05:41:28.541Z,1013.24
2022-10-26T05:42:28.509Z,1013.27
2022-10-26T05:43:28.502Z,1013.24
2022-10-26T05:44:28.508Z,1013.22
2022-10-26T05:45:28.491Z,1013.18
2022-10-26T05:46:28.465Z,1013.18
2022-10-26T05:47:28.458Z,1013.24
2022-10-26T05:48:28.445Z,1013.22
2022-10-26T05:49:28.436Z,1013.28
2022-10-26T05:50:28.435Z,1013.27
2022-10-26T05:51:28.418Z,1013.30
2022-10-26T05:52:28.406Z,1013.28
2022-10-26T05:53:28.393Z,1013.31
2022-10-26T05:54:28.379Z,1013.32
2022-10-26T05:55:28.385Z,1013.33
2022-10-26T05:56:28.360Z,1013.36
2022-10-26T05:57:28.369Z,1013.32
2022-10-26T05:58:28.351Z,1013.33
2022-10-26T05:59:28.330Z,1013.34
2022-10-26T06:00:28.417Z,1013.33
2022-10-26T06:01:28.485Z,1013.36
2022-10-26T06:02:28.392Z,1013.38
2022-10-26T06:03:28.316Z,1013.36
2022-10-26T06:04:28.271Z,1013.39
2022-10-26T06:05:28.275Z,1013.40
2022-10-26T06:06:28.250Z,1013.37
2022-10-26T06:07:28.240Z,1013.39
2022-10-26T06:08:28.237Z,1013.36
2022-10-26T06:09:28.223Z,1013.41
2022-10-26T06:10:28.301Z,1013.43
2022-10-26T06:11:28.202Z,1013.38
2022-10-26T06:12:28.189Z,1013.44
2022-10-26T06:13:28.194Z,1013.43
2022-10-26T06:14:28.164Z,1013.45
2022-10-26T06:15:28.164Z,1013.47
2022-10-26T06:16:28.142Z,1013.43
2022-10-26T06:17:28.132Z,1013.42
2022-10-26T06:18:28.120Z,1013.45
2022-10-26T06:19:28.109Z,1013.49
2022-10-26T06:20:28.219Z,1013.50
2022-10-26T06:21:28.088Z,1013.46
2022-10-26T06:22:28.077Z,1013.46
2022-10-26T06:23:28.065Z,1013.44
2022-10-26T06:24:28.051Z,1013.52
2022-10-26T06:25:28.061Z,1013.46
2022-10-26T06:26:28.045Z,1013.47
2022-10-26T06:27:28.022Z,1013.49
2022-10-26T06:28:28.113Z,1013.47
2022-10-26T06:29:28.018Z,1013.46
2022-10-26T06:30:28.129Z,1013.48
2022-10-26T06:31:27.978Z,1013.42
2022-10-26T06:32:27.985Z,1013.46
2022-10-26T06:33:30.278Z,1013.53
2022-10-26T06:34:27.946Z,1013.53
2022-10-26T06:35:27.949Z,1013.56
2022-10-26T06:36:27.926Z,1013.54
2022-10-26T06:37:27.912Z,1013.56
2022-10-26T06:38:27.900Z,1013.53
2022-10-26T06:39:27.892Z,1013.46
2022-10-26T06:40:27.898Z,1013.50
2022-10-26T06:42:22.013Z,1013.56
2022-10-26T06:43:22.000Z,1013.56
2022-10-26T06:44:21.991Z,1013.55
2022-10-26T06:45:22.001Z,1013.53
2022-10-26T06:46:21.978Z,1013.57
2022-10-26T06:47:23.604Z,1013.58
2022-10-26T06:48:21.947Z,1013.53
2022-10-26T06:49:21.947Z,1013.59
2022-10-26T06:50:21.922Z,1013.55
2022-10-26T06:51:21.926Z,1013.51
2022-10-26T06:52:21.902Z,1013.62
2022-10-26T06:53:21.894Z,1013.56
2022-10-26T06:54:21.880Z,1013.55
2022-10-26T06:55:21.881Z,1013.57
2022-10-26T06:56:21.865Z,1013.58
2022-10-26T06:57:21.852Z,1013.65
2022-10-26T06:58:21.878Z,1013.65
2022-10-26T06:59:21.837Z,1013.66
2022-10-26T07:00:21.916Z,1013.60
2022-10-26T07:01:22.021Z,1013.64
2022-10-26T07:02:21.872Z,1013.62
2022-10-26T07:03:21.784Z,1013.68
2022-10-26T07:04:21.773Z,1013.58
2022-10-26T07:05:21.779Z,1013.59
2022-10-26T07:06:21.788Z,1013.60
2022-10-26T07:07:21.747Z,1013.57
2022-10-26T07:08:21.727Z,1013.64
2022-10-26T07:09:21.722Z,1013.59
2022-10-26T07:10:21.721Z,1013.62
2022-10-26T07:11:21.702Z,1013.64
2022-10-26T07:12:21.690Z,1013.64
2022-10-26T07:13:21.676Z,1013.60
2022-10-26T07:14:21.664Z,1013.55
2022-10-26T07:15:21.668Z,1013.60
2022-10-26T07:16:21.644Z,1013.65
2022-10-26T07:17:21.650Z,1013.65
2022-10-26T07:18:21.621Z,1013.69
2022-10-26T07:19:21.613Z,1013.66
2022-10-26T07:20:21.619Z,1013.70
2022-10-26T07:21:21.599Z,1013.68
2022-10-26T07:22:21.577Z,1013.64
2022-10-26T07:23:21.623Z,1013.66
2022-10-26T07:24:21.553Z,1013.66
2022-10-26T07:25:21.556Z,1013.61
2022-10-26T07:26:21.532Z,1013.64
2022-10-26T07:27:21.527Z,1013.60
2022-10-26T07:28:21.513Z,1013.66
2022-10-26T07:29:21.503Z,1013.65
2022-10-26T07:30:21.516Z,1013.69
2022-10-26T07:31:21.503Z,1013.67
2022-10-26T07:32:21.476Z,1013.66
2022-10-26T07:33:21.476Z,1013.67
2022-10-26T07:34:21.447Z,1013.65
2022-10-26T07:35:21.466Z,1013.62
2022-10-26T07:36:21.443Z,1013.64
2022-10-26T07:37:21.417Z,1013.63
2022-10-26T07:38:21.408Z,1013.60
2022-10-26T07:39:21.396Z,1013.63
2022-10-26T07:41:21.388Z,1013.67
2022-10-26T07:42:21.372Z,1013.68
2022-10-26T07:43:21.357Z,1013.64
2022-10-26T07:44:21.343Z,1013.64
2022-10-26T07:45:21.332Z,1013.69
2022-10-26T07:46:21.333Z,1013.71
2022-10-26T07:47:21.313Z,1013.71
2022-10-26T07:48:21.302Z,1013.74
2022-10-26T07:49:23.814Z,1013.73
2022-10-26T07:50:21.279Z,1013.74
2022-10-26T07:51:21.279Z,1013.76
2022-10-26T07:52:21.258Z,1013.76
2022-10-26T07:53:26.759Z,1013.71
2022-10-26T07:54:22.249Z,1013.68
2022-10-26T07:55:21.230Z,1013.66
2022-10-26T07:56:21.231Z,1013.61
2022-10-26T07:57:21.217Z,1013.69
2022-10-26T07:58:21.205Z,1013.66
2022-10-26T07:59:21.187Z,1013.65
2022-10-26T08:00:21.193Z,1013.64
2022-10-26T08:01:21.330Z,1013.68
2022-10-26T08:02:21.156Z,1013.71
2022-10-26T08:03:21.145Z,1013.66
2022-10-26T08:04:21.136Z,1013.75
2022-10-26T08:05:21.237Z,1013.68
2022-10-26T08:06:21.113Z,1013.65
2022-10-26T08:07:21.102Z,1013.63
2022-10-26T08:08:21.094Z,1013.69
2022-10-26T08:09:21.081Z,1013.71
2022-10-26T08:10:21.150Z,1013.68
2022-10-26T08:11:21.062Z,1013.73
2022-10-26T08:12:21.048Z,1013.69
2022-10-26T08:13:21.042Z,1013.72
2022-10-26T08:14:21.030Z,1013.80
2022-10-26T08:15:21.049Z,1013.77
2022-10-26T08:16:21.007Z,1013.83
2022-10-26T08:17:20.996Z,1013.81
2022-10-26T08:18:20.986Z,1013.86
2022-10-26T08:19:20.975Z,1013.81
2022-10-26T08:20:21.102Z,1013.79
2022-10-26T08:21:35.845Z,1013.72
2022-10-26T08:22:21.991Z,1013.78
2022-10-26T08:23:20.932Z,1013.75
2022-10-26T08:24:20.923Z,1013.70
2022-10-26T08:25:21.591Z,1013.77
2022-10-26T08:26:20.909Z,1013.81
2022-10-26T08:27:20.889Z,1013.80
2022-10-26T08:28:20.876Z,1013.79
2022-10-26T08:29:20.873Z,1013.79
2022-10-26T08:30:21.064Z,1013.74
2022-10-26T08:31:20.858Z,1013.75
2022-10-26T08:32:20.836Z,1013.78
2022-10-26T08:33:20.823Z,1013.84
2022-10-26T08:34:20.820Z,1013.79
2022-10-26T08:35:20.814Z,1013.81
2022-10-26T08:36:20.804Z,1013.75
2022-10-26T08:37:20.798Z,1013.72
2022-10-26T08:38:20.781Z,1013.70
2022-10-26T08:39:20.770Z,1013.72
2022-10-26T08:40:20.807Z,1013.75
2022-10-26T08:41:20.757Z,1013.74
2022-10-26T08:42:20.727Z,1013.78
2022-10-26T08:43:20.715Z,1013.77
2022-10-26T08:44:20.704Z,1013.81
2022-10-26T08:45:24.723Z,1013.81
2022-10-26T08:46:21.698Z,1013.78
2022-10-26T08:47:20.707Z,1013.78
2022-10-26T08:48:20.664Z,1013.74
2022-10-26T08:49:20.667Z,1013.75
2022-10-26T08:50:20.694Z,1013.73
2022-10-26T08:51:20.644Z,1013.79
2022-10-26T08:52:20.622Z,1013.82
2022-10-26T08:53:20.648Z,1013.80
2022-10-26T08:54:20.596Z,1013.78
2022-10-26T08:55:20.583Z,1013.88
2022-10-26T08:56:20.586Z,1013.89
2022-10-26T08:57:20.580Z,1013.85
2022-10-26T08:58:20.577Z,1013.81
2022-10-26T08:59:20.553Z,1013.84
2022-10-26T09:00:20.555Z,1013.88
2022-10-26T09:01:20.629Z,1013.83
2022-10-26T09:02:20.524Z,1013.84
2022-10-26T09:03:20.502Z,1013.81
2022-10-26T09:04:20.486Z,1013.79
2022-10-26T09:05:20.476Z,1013.80
2022-10-26T09:06:20.473Z,1013.82
2022-10-26T09:07:20.469Z,1013.80
2022-10-26T09:08:20.442Z,1013.86
2022-10-26T09:09:20.461Z,1013.86
2022-10-26T09:10:20.520Z,1013.89
2022-10-26T09:11:20.424Z,1013.86
2022-10-26T09:12:20.401Z,1013.86
2022-10-26T09:13:20.389Z,1013.82
2022-10-26T09:14:20.383Z,1013.83
2022-10-26T09:15:20.367Z,1013.86
2022-10-26T09:16:20.369Z,1013.88
2022-10-26T09:17:20.350Z,1013.83
2022-10-26T09:18:20.339Z,1013.91
2022-10-26T09:19:20.334Z,1013.93
2022-10-26T09:20:20.339Z,1013.94
2022-10-26T09:21:20.320Z,1013.87
2022-10-26T09:22:20.301Z,1013.82
2022-10-26T09:23:20.288Z,1013.88
2022-10-26T09:24:20.276Z,1013.89
2022-10-26T09:25:20.282Z,1013.88
2022-10-26T09:26:20.268Z,1013.90
2022-10-26T09:27:20.247Z,1013.94
2022-10-26T09:28:20.237Z,1013.92
2022-10-26T09:29:20.234Z,1013.90
2022-10-26T09:30:20.227Z,1013.92
2022-10-26T09:31:20.221Z,1013.88
2022-10-26T09:32:20.214Z,1013.90
2022-10-26T09:33:20.187Z,1013.89
2022-10-26T09:34:20.179Z,1013.87
2022-10-26T09:35:20.232Z,1013.87
2022-10-26T09:36:20.181Z,1013.94
2022-10-26T09:37:20.150Z,1013.91
2022-10-26T09:38:20.162Z,1013.91
2022-10-26T09:39:20.138Z,1013.93
2022-10-26T09:40:20.132Z,1013.98
2022-10-26T09:41:20.141Z,1014.02
2022-10-26T09:42:20.098Z,1014.04
2022-10-26T09:43:20.087Z,1014.04
2022-10-26T09:44:20.098Z,1013.99
2022-10-26T09:45:20.068Z,1014.03
2022-10-26T09:46:20.068Z,1014.03
2022-10-26T09:47:20.067Z,1014.04
2022-10-26T09:48:20.040Z,1013.97
2022-10-26T09:49:20.029Z,1014.01
2022-10-26T09:50:20.027Z,1014.02
2022-10-26T09:51:20.033Z,1014.01
2022-10-26T09:52:20.000Z,1014.00
2022-10-26T09:53:19.989Z,1014.02
2022-10-26T09:54:19.997Z,1014.04
2022-10-26T09:55:19.980Z,1014.01
2022-10-26T09:56:20.245Z,1014.01
2022-10-26T09:57:19.972Z,1014.02
2022-10-26T09:58:19.949Z,1014.05
2022-10-26T09:59:19.933Z,1014.03
2022-10-26T10:00:20.059Z,1014.02
2022-10-26T10:01:19.977Z,1014.04
2022-10-26T10:02:19.974Z,1014.02
2022-10-26T10:03:19.961Z,1014.07
2022-10-26T10:04:19.889Z,1014.05
2022-10-26T10:05:27.543Z,1014.07
2022-10-26T10:06:20.875Z,1014.08
2022-10-26T10:07:19.855Z,1014.10
2022-10-26T10:08:19.848Z,1014.13
2022-10-26T10:09:19.866Z,1014.13
2022-10-26T10:10:19.830Z,1014.18
2022-10-26T10:11:19.817Z,1014.16
2022-10-26T10:12:19.820Z,1014.19
2022-10-26T10:13:19.817Z,1014.19
2022-10-26T10:14:19.807Z,1014.22
2022-10-26T10:15:19.783Z,1014.18
2022-10-26T10:16:19.776Z,1014.22
2022-10-26T10:17:19.786Z,1014.18
2022-10-26T10:18:19.768Z,1014.16
2022-10-26T10:19:19.766Z,1014.01
2022-10-26T10:20:19.742Z,1013.96
2022-10-26T10:21:19.733Z,1013.97
2022-10-26T10:22:19.718Z,1013.95
2022-10-26T10:23:19.731Z,1013.96
2022-10-26T10:24:19.698Z,1013.92
2022-10-26T10:25:19.748Z,1014.01
2022-10-26T10:26:19.687Z,1014.04
2022-10-26T10:27:19.684Z,1014.00
2022-10-26T10:29:19.671Z,1014.01
2022-10-26T10:30:19.640Z,1014.01
2022-10-26T10:31:19.642Z,1014.02
2022-10-26T10:32:19.612Z,1014.02
2022-10-26T10:33:19.601Z,1014.01
2022-10-26T10:34:19.609Z,1013.98
2022-10-26T10:35:19.591Z,1014.02
2022-10-26T10:36:19.583Z,1013.99
2022-10-26T10:37:19.557Z,1014.02
2022-10-26T10:38:19.548Z,1013.97
2022-10-26T10:39:19.589Z,1014.00
2022-10-26T10:40:19.594Z,1013.99
2022-10-26T10:41:19.532Z,1013.99
2022-10-26T10:42:19.509Z,1014.03
2022-10-26T10:43:19.492Z,1014.04
2022-10-26T10:44:19.485Z,1013.99
2022-10-26T10:45:19.491Z,1014.04
2022-10-26T10:46:19.465Z,1014.00
2022-10-26T10:47:19.462Z,1014.01
2022-10-26T10:48:19.441Z,1014.00
2022-10-26T10:49:19.433Z,1014.02
2022-10-26T10:50:19.461Z,1013.99
2022-10-26T10:51:19.407Z,1013.96
2022-10-26T10:52:19.408Z,1013.96
2022-10-26T10:53:19.437Z,1013.99
2022-10-26T10:54:19.395Z,1013.95
2022-10-26T10:55:19.367Z,1013.99
2022-10-26T10:56:19.356Z,1013.96
2022-10-26T10:57:19.357Z,1013.93
2022-10-26T10:58:19.333Z,1013.99
2022-10-26T10:59:19.323Z,1014.03
2022-10-26T11:00:19.322Z,1014.01
2022-10-26T11:01:19.440Z,1014.01
2022-10-26T11:02:19.455Z,1013.99
2022-10-26T11:03:23.332Z,1014.00
2022-10-26T11:04:20.279Z,1014.01
2022-10-26T11:05:22.050Z,1014.03
2022-10-26T11:06:20.248Z,1014.03
2022-10-26T11:07:19.249Z,1013.98
2022-10-26T11:08:19.226Z,1014.03
2022-10-26T11:09:19.215Z,1014.03
2022-10-26T11:10:19.206Z,1014.07
2022-10-26T11:11:19.195Z,1014.02
2022-10-26T11:12:19.204Z,1013.99
2022-10-26T11:13:19.215Z,1013.97
2022-10-26T11:14:19.182Z,1013.99
2022-10-26T11:15:19.151Z,1013.98
2022-10-26T11:16:19.140Z,1013.97
2022-10-26T11:17:19.168Z,1013.98
2022-10-26T11:18:19.122Z,1013.96
2022-10-26T11:19:19.107Z,1013.97
2022-10-26T11:20:19.098Z,1014.00
2022-10-26T11:21:19.090Z,1013.94
2022-10-26T11:22:19.084Z,1013.96
2022-10-26T11:23:19.063Z,1013.96
2022-10-26T11:24:19.081Z,1013.91
2022-10-26T11:25:19.040Z,1013.93
2022-10-26T11:26:19.032Z,1013.93
2022-10-26T11:27:19.042Z,1013.90
2022-10-26T11:28:19.011Z,1013.91
2022-10-26T11:29:19.039Z,1013.87
2022-10-26T11:30:18.987Z,1013.82
2022-10-26T11:31:18.976Z,1013.89
2022-10-26T11:32:19.017Z,1013.91
2022-10-26T11:33:18.972Z,1013.87
2022-10-26T11:34:18.949Z,1013.85
2022-10-26T11:35:18.933Z,1013.83
2022-10-26T11:36:21.719Z,1013.83
2022-10-26T11:37:18.921Z,1013.80
2022-10-26T11:38:27.901Z,1013.83
2022-10-26T11:39:19.892Z,1013.80
2022-10-26T11:40:18.886Z,1013.80
2022-10-26T11:41:18.885Z,1013.80
2022-10-26T11:42:18.864Z,1013.76
2022-10-26T11:43:18.844Z,1013.73
2022-10-26T11:44:18.844Z,1013.75
2022-10-26T11:45:18.837Z,1013.77
2022-10-26T11:46:19.333Z,1013.76
2022-10-26T11:47:18.802Z,1013.71
2022-10-26T11:48:18.795Z,1013.71
2022-10-26T11:49:18.798Z,1013.72
2022-10-26T11:50:18.863Z,1013.69
2022-10-26T11:51:18.774Z,1013.68
2022-10-26T11:52:18.751Z,1013.64
2022-10-26T11:53:18.740Z,1013.68
2022-10-26T11:54:18.777Z,1013.68
2022-10-26T11:55:18.722Z,1013.66
2022-10-26T11:56:18.721Z,1013.63
2022-10-26T11:57:18.696Z,1013.64
2022-10-26T11:58:18.690Z,1013.66
2022-10-26T11:59:18.672Z,1013.64
2022-10-26T12:00:18.664Z,1013.63
2022-10-26T12:01:18.761Z,1013.63
2022-10-26T12:02:18.642Z,1013.63
2022-10-26T12:03:18.636Z,1013.59
2022-10-26T12:04:18.619Z,1013.66
2022-10-26T12:05:18.627Z,1013.61
2022-10-26T12:06:18.608Z,1013.65
2022-10-26T12:07:18.586Z,1013.59
2022-10-26T12:08:18.576Z,1013.62
2022-10-26T12:09:18.580Z,1013.63
2022-10-26T12:10:22.986Z,1013.62